sensor_id;sensor_type;location;lat;lon;timestamp;pressure;altitude;pressure_sealevel;temperature;humidity
55014;BME280;40916;51.632;5.552;2023-01-29T00:00:51;1026.0136390359064;;;-1.2885195798760307;0
55014;BME280;40916;51.632;5.552;2023-01-29T00:01:51;1026.066917544687;;;-1.2730112463551357;0
55014;BME280;40916;51.632;5.552;2023-01-29T00:02:51;1026.1360620362175;;;-1.2497544399489087;0
55014;BME280;40916;51.632;5.552;2023-01-29T00:03:51;1026.021303984251;;;-1.2497544399489087;0
55014;BME280;40916;51.632;5.552;2023-01-29T00:04:51;1026.1215817935995;;;-1.1955150893664914;0
55014;BME280;40916;51.632;5.552;2023-01-29T00:05:51;1026.0570226401364;;;-1.1955150893664914;0
55014;BME280;40916;51.632;5.552;2023-01-29T00:06:51;1025.9948761240698;;;-1.1645378218410016;0
55014;BME280;40916;51.632;5.552;2023-01-29T00:07:51;1025.9368801085154;;;-1.149053720724801;0
55014;BME280;40916;51.632;5.552;2023-01-29T00:08:52;1025.9010102808722;;;-1.149053720724801;0
55014;BME280;40916;51.632;5.552;2023-01-29T00:09:52;1025.8896300095785;;;-1.1335726383142735;0
55014;BME280;40916;51.632;5.552;2023-01-29T00:10:52;1025.84299765896;;;-1.1335726383142735;0
55014;BME280;40916;51.632;5.552;2023-01-29T00:11:52;1025.8459524746604;;;-1.1180945723183022;0
55014;BME280;40916;51.632;5.552;2023-01-29T00:12:52;1025.8632454503525;;;-1.1026195204480906;0
55014;BME280;40916;51.632;5.552;2023-01-29T00:13:52;1025.8969999753556;;;-1.094883124095528;0
55014;BME280;40916;51.632;5.552;2023-01-29T00:14:52;1025.9142784489259;;;-1.079412589127518;0
55014;BME280;40916;51.632;5.552;2023-01-29T00:15:53;1025.8583371261964;;;-1.07167844994132;0
55014;BME280;40916;51.632;5.552;2023-01-29T00:16:52;1025.918650653607;;;-1.0562124267387318;0
55014;BME280;40916;51.632;5.552;2023-01-29T00:17:53;1025.8454429222234;;;-1.0639450625733957;0
55014;BME280;40916;51.632;5.552;2023-01-29T00:18:53;1025.8798626957687;;;-1.07167844994132;0
55014;BME280;40916;51.632;5.552;2023-01-29T00:19:53;1025.9042997778101;;;-1.0562124267387318;0
55014;BME280;40916;51.632;5.552;2023-01-29T00:20:53;1025.8375835268685;;;-1.0484805421524506;0
55014;BME280;40916;51.632;5.552;2023-01-29T00:21:53;1025.7514768887702;;;-1.0484805421524506;0
55014;BME280;40916;51.632;5.552;2023-01-29T00:22:53;1025.7909424231275;;;-1.0484805421524506;0
55014;BME280;40916;51.632;5.552;2023-01-29T00:23:53;1025.7744500206134;;;-1.0407494085298268;0
55014;BME280;40916;51.632;5.552;2023-01-29T00:24:53;1025.763686509283;;;-1.0407494085298268;0
55014;BME280;40916;51.632;5.552;2023-01-29T00:25:53;1025.7120113681274;;;-1.0484805421524506;0
55014;BME280;40916;51.632;5.552;2023-01-29T00:26:54;1025.7285016964704;;;-1.0562124267387318;0
55014;BME280;40916;51.632;5.552;2023-01-29T00:27:54;1025.6968954844547;;;-1.07167844994132;0
55014;BME280;40916;51.632;5.552;2023-01-29T00:28:54;1025.7894928367184;;;-1.0562124267387318;0
55014;BME280;40916;51.632;5.552;2023-01-29T00:29:54;1025.7464402637313;;;-1.0562124267387318;0
55014;BME280;40916;51.632;5.552;2023-01-29T00:30:54;1025.8289577096277;;;-1.0562124267387318;0
55014;BME280;40916;51.632;5.552;2023-01-29T00:31:54;1025.7507093395348;;;-1.07167844994132;0
55014;BME280;40916;51.632;5.552;2023-01-29T00:32:54;1025.7471217484028;;;-1.07167844994132;0
55014;BME280;40916;51.632;5.552;2023-01-29T00:33:54;1025.7442043046174;;;-1.0871474804171548;0
55014;BME280;40916;51.632;5.552;2023-01-29T00:34:54;1025.7119170946912;;;-1.0871474804171548;0
55014;BME280;40916;51.632;5.552;2023-01-29T00:35:55;1025.656643642716;;;-1.094883124095528;0
55014;BME280;40916;51.632;5.552;2023-01-29T00:36:55;1025.666738803241;;;-1.079412589127518;0
55014;BME280;40916;51.632;5.552;2023-01-29T00:37:55;1025.7564270183314;;;-1.079412589127518;0
55014;BME280;40916;51.632;5.552;2023-01-29T00:38:55;1025.6610195952342;;;-1.07167844994132;0
55014;BME280;40916;51.632;5.552;2023-01-29T00:39:55;1025.6194208490654;;;-1.0639450625733957;0
55014;BME280;40916;51.632;5.552;2023-01-29T00:40:55;1025.5605671657115;;;-1.07167844994132;0
55014;BME280;40916;51.632;5.552;2023-01-29T00:41:55;1025.5426292412183;;;-1.07167844994132;0
55014;BME280;40916;51.632;5.552;2023-01-29T00:42:55;1025.5978949607968;;;-1.0639450625733957;0
55014;BME280;40916;51.632;5.552;2023-01-29T00:43:55;1025.564912730195;;;-1.0484805421524506;0
55014;BME280;40916;51.632;5.552;2023-01-29T00:44:55;1025.5412408368509;;;-1.0407494085298268;0
55014;BME280;40916;51.632;5.552;2023-01-29T00:45:56;1025.5333535592067;;;-1.025289393037358;0
55014;BME280;40916;51.632;5.552;2023-01-29T00:46:56;1025.4967497602436;;;-1.0098323779863705;0
55014;BME280;40916;51.632;5.552;2023-01-29T00:47:56;1025.4658841887842;;;-1.002104994916138;0
55014;BME280;40916;51.632;5.552;2023-01-29T00:48:56;1025.4156503227105;;;-1.002104994916138;0
55014;BME280;40916;51.632;5.552;2023-01-29T00:49:56;1025.3904436081093;;;-0.9634793127672232;0
55014;BME280;40916;51.632;5.552;2023-01-29T00:50:56;1025.3617361068032;;;-0.9634793127672232;0
55014;BME280;40916;51.632;5.552;2023-01-29T00:51:56;1025.4225815244322;;;-0.9248723266534356;0
55014;BME280;40916;51.632;5.552;2023-01-29T00:52:56;1025.2784247697416;;;-0.9480342767785501;0
55014;BME280;40916;51.632;5.552;2023-01-29T00:53:57;1025.3171115398518;;;-0.9325922298910037;0
55014;BME280;40916;51.632;5.552;2023-01-29T00:54:57;1025.2933867630952;;;-0.9248723266534356;0
55014;BME280;40916;51.632;5.552;2023-01-29T00:55:57;1025.2359669163452;;;-0.9248723266534356;0
55014;BME280;40916;51.632;5.552;2023-01-29T00:56:57;1025.2281849813812;;;-0.9480342767785501;0
55014;BME280;40916;51.632;5.552;2023-01-29T00:57:57;1025.3135228590747;;;-0.9325922298910037;0
55014;BME280;40916;51.632;5.552;2023-01-29T00:58:57;1025.3049464791286;;;-0.9403128798385154;0
55014;BME280;40916;51.632;5.552;2023-01-29T00:59:57;1025.2554896302452;;;-0.9557564209938292;0
55014;BME280;40916;51.632;5.552;2023-01-29T01:00:57;1025.2604819856329;;;-0.9480342767785501;0
55014;BME280;40916;51.632;5.552;2023-01-29T01:01:57;1025.246127760387;;;-0.9480342767785501;0
55014;BME280;40916;51.632;5.552;2023-01-29T01:02:57;1025.294963083417;;;-0.9557564209938292;0
55014;BME280;40916;51.632;5.552;2023-01-29T01:03:57;1025.212427696979;;;-0.9557564209938292;0
55014;BME280;40916;51.632;5.552;2023-01-29T01:04:58;1025.2361408739132;;;-0.9634793127672232;0
55014;BME280;40916;51.632;5.552;2023-01-29T01:06:01;1025.244084869125;;;-0.9789273401205172;0
55014;BME280;40916;51.632;5.552;2023-01-29T01:06:58;1025.2419968090105;;;-1.0098323779863705;0
55014;BME280;40916;51.632;5.552;2023-01-29T01:07:58;1025.2499056811657;;;-1.025289393037358;0
55014;BME280;40916;51.632;5.552;2023-01-29T01:08:58;1025.393423505679;;;-1.025289393037358;0
55014;BME280;40916;51.632;5.552;2023-01-29T01:09:58;1025.412079033452;;;-1.0407494085298268;0
55014;BME280;40916;51.632;5.552;2023-01-29T01:10:59;1025.4221003593282;;;-1.0639450625733957;0
55014;BME280;40916;51.632;5.552;2023-01-29T01:11:58;1025.417745160406;;;-1.0871474804171548;0
55014;BME280;40916;51.632;5.552;2023-01-29T01:12:59;1025.3416192653194;;;-1.110356669760435;0
55014;BME280;40916;51.632;5.552;2023-01-29T01:13:58;1025.3408043273166;;;-1.1335726383142735;0
55014;BME280;40916;51.632;5.552;2023-01-29T01:14:59;1025.385111161798;;;-1.1645378218410016;0
55014;BME280;40916;51.632;5.552;2023-01-29T01:15:59;1025.3878206400273;;;-1.1877696386059675;0
55014;BME280;40916;51.632;5.552;2023-01-29T01:16:59;1025.3642044846185;;;-1.1800249439563117;0
55014;BME280;40916;51.632;5.552;2023-01-29T01:17:59;1025.250631607533;;;-1.2110082603696313;0
55014;BME280;40916;51.632;5.552;2023-01-29T01:18:59;1025.4114331240166;;;-1.1955150893664914;0
55014;BME280;40916;51.632;5.552;2023-01-29T01:19:59;1025.2548017232443;;;-1.226504459266149;0
55014;BME280;40916;51.632;5.552;2023-01-29T01:20:59;1025.277823001642;;;-1.2187559811873534;0
55014;BME280;40916;51.632;5.552;2023-01-29T01:21:59;1025.2915805247217;;;-1.2032612965252198;0
55014;BME280;40916;51.632;5.552;2023-01-29T01:23:02;1025.2987535909608;;;-1.2032612965252198;0
55014;BME280;40916;51.632;5.552;2023-01-29T01:24:00;1025.2987535909608;;;-1.2032612965252198;0
55014;BME280;40916;51.632;5.552;2023-01-29T01:25:00;1025.377937475845;;;-1.1645378218410016;0
55014;BME280;40916;51.632;5.552;2023-01-29T01:26:00;1025.3304341119006;;;-1.1877696386059675;0
55014;BME280;40916;51.632;5.552;2023-01-29T01:27:00;1025.394993958082;;;-1.1877696386059675;0
55014;BME280;40916;51.632;5.552;2023-01-29T01:28:00;1025.374964643911;;;-1.1800249439563117;0
55014;BME280;40916;51.632;5.552;2023-01-29T01:29:00;1025.3635901052985;;;-1.1645378218410016;0
55014;BME280;40916;51.632;5.552;2023-01-29T01:30:00;1025.403045378663;;;-1.1645378218410016;0
55014;BME280;40916;51.632;5.552;2023-01-29T01:31:06;1025.3865934797707;;;-1.1567953938014064;0
55014;BME280;40916;51.632;5.552;2023-01-29T01:32:00;1025.4233073650657;;;-1.1335726383142735;0
55014;BME280;40916;51.632;5.552;2023-01-29T01:33:01;1025.3270945793963;;;-1.149053720724801;0
55014;BME280;40916;51.632;5.552;2023-01-29T01:34:01;1025.3336301529537;;;-1.1335726383142735;0
55014;BME280;40916;51.632;5.552;2023-01-29T01:35:01;1025.3745588825302;;;-1.125833228407572;0
55014;BME280;40916;51.632;5.552;2023-01-29T01:36:01;1025.4040656664338;;;-1.1026195204480906;0
55014;BME280;40916;51.632;5.552;2023-01-29T01:37:01;1025.29285834179;;;-1.1026195204480906;0
55014;BME280;40916;51.632;5.552;2023-01-29T01:38:01;1025.4069827870153;;;-1.0871474804171548;0
55014;BME280;40916;51.632;5.552;2023-01-29T01:39:01;1025.4063011076632;;;-1.07167844994132;0
55014;BME280;40916;51.632;5.552;2023-01-29T01:40:02;1025.4199587830894;;;-1.0562124267387318;0
55014;BME280;40916;51.632;5.552;2023-01-29T01:41:01;1025.420692288235;;;-1.0330190255862775;0
55014;BME280;40916;51.632;5.552;2023-01-29T01:42:02;1025.3259712461313;;;-1.0407494085298268;0
55014;BME280;40916;51.632;5.552;2023-01-29T01:43:02;1025.3001368991142;;;-1.025289393037358;0
55014;BME280;40916;51.632;5.552;2023-01-29T01:44:02;1025.374755317924;;;-1.0098323779863705;0
55014;BME280;40916;51.632;5.552;2023-01-29T01:45:03;1025.2958178074325;;;-1.0098323779863705;0
55014;BME280;40916;51.632;5.552;2023-01-29T01:46:02;1025.2276445470727;;;-1.0098323779863705;0
55014;BME280;40916;51.632;5.552;2023-01-29T01:47:02;1025.3582402172635;;;-1.002104994916138;0
55014;BME280;40916;51.632;5.552;2023-01-29T01:48:03;1025.3618283480037;;;-1.002104994916138;0
55014;BME280;40916;51.632;5.552;2023-01-29T01:49:03;1025.2814655386924;;;-1.0098323779863705;0
55014;BME280;40916;51.632;5.552;2023-01-29T01:50:04;1025.376180872098;;;-1.002104994916138;0
55014;BME280;40916;51.632;5.552;2023-01-29T01:51:03;1025.363250861604;;;-0.9943783611042072;0
55014;BME280;40916;51.632;5.552;2023-01-29T01:52:02;1025.3955445954184;;;-0.9943783611042072;0
55014;BME280;40916;51.632;5.552;2023-01-29T01:53:04;1025.4199122414136;;;-0.9789273401205172;0
55014;BME280;40916;51.632;5.552;2023-01-29T01:54:04;1025.432092428455;;;-0.9712029523817343;0
55014;BME280;40916;51.632;5.552;2023-01-29T01:55:03;1025.444270192618;;;-0.9634793127672232;0
55014;BME280;40916;51.632;5.552;2023-01-29T01:56:04;1025.4578527667481;;;-0.9480342767785501;0
55014;BME280;40916;51.632;5.552;2023-01-29T01:57:05;1025.4147900216124;;;-0.9480342767785501;0
55014;BME280;40916;51.632;5.552;2023-01-29T01:58:05;1025.4893683505215;;;-0.9325922298910037;0
55014;BME280;40916;51.632;5.552;2023-01-29T01:59:04;1025.4010490540027;;;-0.9248723266534356;0
55014;BME280;40916;51.632;5.552;2023-01-29T02:00:05;1025.4383321582468;;;-0.9171531698433739;0
55014;BME280;40916;51.632;5.552;2023-01-29T02:01:04;1025.4223526032074;;;-0.8862840012344186;0
55014;BME280;40916;51.632;5.552;2023-01-29T02:02:04;1025.4259416548118;;;-0.8862840012344186;0
55014;BME280;40916;51.632;5.552;2023-01-29T02:03:04;1025.4151745003385;;;-0.8862840012344186;0
55014;BME280;40916;51.632;5.552;2023-01-29T02:04:05;1025.3986101800322;;;-0.8785685723303089;0
55014;BME280;40916;51.632;5.552;2023-01-29T02:05:04;1025.4259416548118;;;-0.8862840012344186;0
55014;BME280;40916;51.632;5.552;2023-01-29T02:06:04;1025.4309121927145;;;-0.8785685723303089;0
55014;BME280;40916;51.632;5.552;2023-01-29T02:07:05;1025.3928099872749;;;-0.8708538881620633;0
55014;BME280;40916;51.632;5.552;2023-01-29T02:08:04;1025.4507677650404;;;-0.8477143012588364;0
55014;BME280;40916;51.632;5.552;2023-01-29T02:09:05;1025.4871688165383;;;-0.8245814068550068;0
55014;BME280;40916;51.632;5.552;2023-01-29T02:10:06;1025.5387833435561;;;-0.8168719279653942;0
55014;BME280;40916;51.632;5.552;2023-01-29T02:11:05;1025.4647584956754;;;-0.8091631915640782;0
55014;BME280;40916;51.632;5.552;2023-01-29T02:12:06;1025.496182180279;;;-0.7937479451052276;0
55014;BME280;40916;51.632;5.552;2023-01-29T02:13:05;1025.467463879341;;;-0.7937479451052276;0
55014;BME280;40916;51.632;5.552;2023-01-29T02:14:05;1025.539710631423;;;-0.770630637075989;0
55014;BME280;40916;51.632;5.552;2023-01-29T02:15:05;1025.466568265707;;;-0.7783356652376661;0
55014;BME280;40916;51.632;5.552;2023-01-29T02:16:05;1025.5720203918738;;;-0.770630637075989;0
55014;BME280;40916;51.632;5.552;2023-01-29T02:17:05;1025.577855512383;;;-0.7783356652376661;0
55014;BME280;40916;51.632;5.552;2023-01-29T02:18:05;1025.5576604972055;;;-0.770630637075989;0
55014;BME280;40916;51.632;5.552;2023-01-29T02:19:10;1025.4903515049746;;;-0.7860414344874975;0
55014;BME280;40916;51.632;5.552;2023-01-29T02:20:07;1025.5419563886364;;;-0.7783356652376661;0
55014;BME280;40916;51.632;5.552;2023-01-29T02:21:10;1025.5980470270624;;;-0.7860414344874975;0
55014;BME280;40916;51.632;5.552;2023-01-29T02:22:11;1025.5679779643967;;;-0.7937479451052276;0
55014;BME280;40916;51.632;5.552;2023-01-29T02:23:09;1025.5572085938857;;;-0.7937479451052276;0
55014;BME280;40916;51.632;5.552;2023-01-29T02:24:10;1025.5154804509934;;;-0.7860414344874975;0
55014;BME280;40916;51.632;5.552;2023-01-29T02:25:11;1025.5168270087663;;;-0.7783356652376661;0
55014;BME280;40916;51.632;5.552;2023-01-29T02:26:08;1025.5275967423154;;;-0.7783356652376661;0
55014;BME280;40916;51.632;5.552;2023-01-29T02:27:07;1025.5962420738824;;;-0.7552228028988104;0
55014;BME280;40916;51.632;5.552;2023-01-29T02:28:38;1025.5966537917027;;;-0.732116602808599;0
55014;BME280;40916;51.632;5.552;2023-01-29T02:29:07;1025.5087417146572;;;-0.7629263497228571;0
55014;BME280;40916;51.632;5.552;2023-01-29T02:30:07;1025.6612788550256;;;-0.732116602808599;0
55014;BME280;40916;51.632;5.552;2023-01-29T02:31:07;1025.5518221191255;;;-0.7629263497228571;0
55014;BME280;40916;51.632;5.552;2023-01-29T02:32:08;1025.6935914004775;;;-0.732116602808599;0
55014;BME280;40916;51.632;5.552;2023-01-29T02:33:08;1025.7160541183846;;;-0.7475199963245167;0
55014;BME280;40916;51.632;5.552;2023-01-29T02:34:07;1025.6321430487224;;;-0.7552228028988104;0
55014;BME280;40916;51.632;5.552;2023-01-29T02:35:09;1025.651431223931;;;-0.7475199963245167;0
55014;BME280;40916;51.632;5.552;2023-01-29T02:36:10;1025.5724477362037;;;-0.7475199963245167;0
55014;BME280;40916;51.632;5.552;2023-01-29T02:37:08;1025.5231018476638;;;-0.7629263497228571;0
55014;BME280;40916;51.632;5.552;2023-01-29T02:38:10;1025.5675213021818;;;-0.7552228028988104;0
55014;BME280;40916;51.632;5.552;2023-01-29T02:39:10;1025.5518221191255;;;-0.7629263497228571;0
55014;BME280;40916;51.632;5.552;2023-01-29T02:40:11;1025.4800214540905;;;-0.7629263497228571;0
55014;BME280;40916;51.632;5.552;2023-01-29T02:41:09;1025.5930635114853;;;-0.732116602808599;0
55014;BME280;40916;51.632;5.552;2023-01-29T02:42:09;1025.52484820892;;;-0.732116602808599;0
55014;BME280;40916;51.632;5.552;2023-01-29T02:43:12;1025.501043021259;;;-0.724416015309032;0
55014;BME280;40916;51.632;5.552;2023-01-29T02:44:10;1025.4638134992522;;;-0.732116602808599;0
55014;BME280;40916;51.632;5.552;2023-01-29T02:45:09;1025.5346806126322;;;-0.7167161669433249;0
55014;BME280;40916;51.632;5.552;2023-01-29T02:46:10;1025.4785550188265;;;-0.7090170574328525;0
55014;BME280;40916;51.632;5.552;2023-01-29T02:47:09;1025.4762825353373;;;-0.701318686499139;0
55014;BME280;40916;51.632;5.552;2023-01-29T02:48:09;1025.4606027210634;;;-0.7090170574328525;0
55014;BME280;40916;51.632;5.552;2023-01-29T02:49:09;1025.466826004541;;;-0.6936210538638328;0
55014;BME280;40916;51.632;5.552;2023-01-29T02:50:10;1025.4922991288106;;;-0.670532582967045;0
55014;BME280;40916;51.632;5.552;2023-01-29T02:51:10;1025.5389790919355;;;-0.670532582967045;0
55014;BME280;40916;51.632;5.552;2023-01-29T02:52:11;1025.4939090168723;;;-0.6397582744207;0
55014;BME280;40916;51.632;5.552;2023-01-29T02:53:09;1025.5670237336926;;;-0.6320665381690809;0
55014;BME280;40916;51.632;5.552;2023-01-29T02:54:11;1025.4857194154163;;;-0.6243755377170679;0
55014;BME280;40916;51.632;5.552;2023-01-29T02:55:10;1025.4787999663647;;;-0.6013069483898406;0
55014;BME280;40916;51.632;5.552;2023-01-29T02:56:10;1025.4262084908346;;;-0.5936188883681375;0
55014;BME280;40916;51.632;5.552;2023-01-29T02:57:10;1025.4059353637945;;;-0.5859315627626813;0
55014;BME280;40916;51.632;5.552;2023-01-29T02:58:10;1025.3843867600422;;;-0.5859315627626813;0
55014;BME280;40916;51.632;5.552;2023-01-29T02:59:10;1025.4431226886309;;;-0.5782449712972166;0
55014;BME280;40916;51.632;5.552;2023-01-29T03:00:10;1025.3856587595326;;;-0.5782449712972166;0
55014;BME280;40916;51.632;5.552;2023-01-29T03:01:10;1025.4395311922106;;;-0.5782449712972166;0
55014;BME280;40916;51.632;5.552;2023-01-29T03:02:11;1025.407207729537;;;-0.5782449712972166;0
55014;BME280;40916;51.632;5.552;2023-01-29T03:03:11;1025.4036162342525;;;-0.5782449712972166;0
55014;BME280;40916;51.632;5.552;2023-01-29T03:04:11;1025.3343202775459;;;-0.5628739896819326;0
55014;BME280;40916;51.632;5.552;2023-01-29T03:05:10;1025.4399272803187;;;-0.5321408239914263;0
55014;BME280;40916;51.632;5.552;2023-01-29T03:06:10;1025.4146000210908;;;-0.5551895989803022;0
55014;BME280;40916;51.632;5.552;2023-01-29T03:07:12;1025.4386709623705;;;-0.5398230164105406;0
55014;BME280;40916;51.632;5.552;2023-01-29T03:08:11;1025.4172878012344;;;-0.5167786355082953;0
55014;BME280;40916;51.632;5.552;2023-01-29T03:09:11;1025.4352477200641;;;-0.5167786355082953;0
55014;BME280;40916;51.632;5.552;2023-01-29T03:10:12;1025.4065118512997;;;-0.5167786355082953;0
55014;BME280;40916;51.632;5.552;2023-01-29T03:11:11;1025.3741840076307;;;-0.5167786355082953;0
55014;BME280;40916;51.632;5.552;2023-01-29T03:12:11;1025.3741840076307;;;-0.5167786355082953;0
55014;BME280;40916;51.632;5.552;2023-01-29T03:13:12;1025.4150775675112;;;-0.4860630362630687;0
55014;BME280;40916;51.632;5.552;2023-01-29T03:14:11;1025.392143919644;;;-0.5167786355082953;0
55014;BME280;40916;51.632;5.552;2023-01-29T03:15:12;1025.431655736071;;;-0.5167786355082953;0
55014;BME280;40916;51.632;5.552;2023-01-29T03:16:13;1025.420879784773;;;-0.5167786355082953;0
55014;BME280;40916;51.632;5.552;2023-01-29T03:17:11;1025.353878683949;;;-0.5090986388941197;0
55014;BME280;40916;51.632;5.552;2023-01-29T03:18:13;1025.3418561731648;;;-0.5167786355082953;0
55014;BME280;40916;51.632;5.552;2023-01-29T03:19:12;1025.4413330254567;;;-0.5014193736649872;0
55014;BME280;40916;51.632;5.552;2023-01-29T03:20:12;1025.4474076168647;;;-0.4860630362630687;0
55014;BME280;40916;51.632;5.552;2023-01-29T03:21:13;1025.436630932724;;;-0.4860630362630687;0
55014;BME280;40916;51.632;5.552;2023-01-29T03:22:12;1025.488264466435;;;-0.4553591260006442;0
55014;BME280;40916;51.632;5.552;2023-01-29T03:23:13;1025.3720777960143;;;-0.4630340086841258;0
55014;BME280;40916;51.632;5.552;2023-01-29T03:24:12;1025.3840827912186;;;-0.4553591260006442;0
55014;BME280;40916;51.632;5.552;2023-01-29T03:25:12;1025.3960854187974;;;-0.44768497278194985;0
55014;BME280;40916;51.632;5.552;2023-01-29T03:26:12;1025.4152708647441;;;-0.4400115487542635;0
55014;BME280;40916;51.632;5.552;2023-01-29T03:27:12;1025.4631954276329;;;-0.4323388536439481;0
55014;BME280;40916;51.632;5.552;2023-01-29T03:28:14;1025.4751211327446;;;-0.44768497278194985;0
55014;BME280;40916;51.632;5.552;2023-01-29T03:29:13;1025.4714332537242;;;-0.4707096211062982;0
55014;BME280;40916;51.632;5.552;2023-01-29T03:30:13;1025.4043008864385;;;-0.4860630362630687;0
55014;BME280;40916;51.632;5.552;2023-01-29T03:31:13;1025.457063851287;;;-0.4707096211062982;0
55014;BME280;40916;51.632;5.552;2023-01-29T03:32:13;1025.3697129124823;;;-0.4553591260006442;0
55014;BME280;40916;51.632;5.552;2023-01-29T03:33:14;1025.3840827912186;;;-0.4553591260006442;0
55014;BME280;40916;51.632;5.552;2023-01-29T03:34:13;1025.3840827912186;;;-0.4553591260006442;0
55014;BME280;40916;51.632;5.552;2023-01-29T03:35:13;1025.4379698526739;;;-0.4553591260006442;0
55014;BME280;40916;51.632;5.552;2023-01-29T03:36:14;1025.4343773811145;;;-0.4553591260006442;0
55014;BME280;40916;51.632;5.552;2023-01-29T03:37:14;1025.412822554146;;;-0.4553591260006442;0
55014;BME280;40916;51.632;5.552;2023-01-29T03:38:13;1025.3672551272477;;;-0.4707096211062982;0
55014;BME280;40916;51.632;5.552;2023-01-29T03:39:14;1025.3457010440463;;;-0.4707096211062982;0
55014;BME280;40916;51.632;5.552;2023-01-29T03:40:14;1025.3840827912186;;;-0.4553591260006442;0
55014;BME280;40916;51.632;5.552;2023-01-29T03:41:17;1025.2906786119347;;;-0.4553591260006442;0
55014;BME280;40916;51.632;5.552;2023-01-29T03:42:16;1025.2354663498154;;;-0.4860630362630687;0
55014;BME280;40916;51.632;5.552;2023-01-29T03:43:17;1025.332561308121;;;-0.4630340086841258;0
55014;BME280;40916;51.632;5.552;2023-01-29T03:44:15;1025.4164150250233;;;-0.4553591260006442;0
55014;BME280;40916;51.632;5.552;2023-01-29T03:45:16;1025.231874128359;;;-0.4860630362630687;0
55014;BME280;40916;51.632;5.552;2023-01-29T03:46:16;1025.3217840865366;;;-0.4630340086841258;0
55014;BME280;40916;51.632;5.552;2023-01-29T03:47:16;1025.2607131835437;;;-0.4630340086841258;0
55014;BME280;40916;51.632;5.552;2023-01-29T03:48:15;1025.2799012115763;;;-0.4553591260006442;0
55014;BME280;40916;51.632;5.552;2023-01-29T03:49:17;1025.278752423645;;;-0.4400115487542635;0
55014;BME280;40916;51.632;5.552;2023-01-29T03:50:19;1025.264382070971;;;-0.4400115487542635;0
55014;BME280;40916;51.632;5.552;2023-01-29T03:51:16;1025.2140858509313;;;-0.4400115487542635;0
55014;BME280;40916;51.632;5.552;2023-01-29T03:52:17;1025.2859376006643;;;-0.4400115487542635;0
55014;BME280;40916;51.632;5.552;2023-01-29T03:53:16;1025.179312190885;;;-0.4553591260006442;0
55014;BME280;40916;51.632;5.552;2023-01-29T03:54:17;1025.2211967344017;;;-0.4630340086841258;0
55014;BME280;40916;51.632;5.552;2023-01-29T03:55:16;1025.1780878964744;;;-0.4630340086841258;0
55014;BME280;40916;51.632;5.552;2023-01-29T03:56:18;1025.2008669735326;;;-0.4553591260006442;0
55014;BME280;40916;51.632;5.552;2023-01-29T03:57:16;1025.1074629449402;;;-0.4553591260006442;0
55014;BME280;40916;51.632;5.552;2023-01-29T03:58:18;1025.1350489787314;;;-0.4400115487542635;0
55014;BME280;40916;51.632;5.552;2023-01-29T03:59:18;1025.1002780228457;;;-0.4553591260006442;0
55014;BME280;40916;51.632;5.552;2023-01-29T04:00:16;1025.1003378390938;;;-0.4323388536439481;0
55014;BME280;40916;51.632;5.552;2023-01-29T04:01:17;1025.1626257952305;;;-0.424666887177505;0
55014;BME280;40916;51.632;5.552;2023-01-29T04:02:17;1025.0824085769461;;;-0.4093251390829131;0
55014;BME280;40916;51.632;5.552;2023-01-29T04:03:17;1025.069240438234;;;-0.40165535690844933;0
55014;BME280;40916;51.632;5.552;2023-01-29T04:04:17;1025.0596620327503;;;-0.39398630228521725;0
55014;BME280;40916;51.632;5.552;2023-01-29T04:05:17;1025.0704408736199;;;-0.39398630228521725;0
55014;BME280;40916;51.632;5.552;2023-01-29T04:06:17;1025.065647426082;;;-0.3786503746013352;0
55014;BME280;40916;51.632;5.552;2023-01-29T04:07:18;1025.0476820839697;;;-0.3786503746013352;0
55014;BME280;40916;51.632;5.552;2023-01-29T04:08:19;1024.9255250805475;;;-0.40165535690844933;0
55014;BME280;40916;51.632;5.552;2023-01-29T04:09:17;1024.9973791411746;;;-0.3786503746013352;0
55014;BME280;40916;51.632;5.552;2023-01-29T04:10:18;1024.9925719953658;;;-0.3633173538503591;0
55014;BME280;40916;51.632;5.552;2023-01-29T04:11:17;1025.0296898985002;;;-0.3556519328937746;0
55014;BME280;40916;51.632;5.552;2023-01-29T04:12:17;1025.003306791991;;;-0.3403232684577304;0